sensor_id;sensor_type;location;lat;lon;timestamp;pressure;altitude;pressure_sealevel;temperature;humidity
6938;BME280;40040;42.706;23.372;2023-08-21T00:00:42;149866.63;;;23.08;75.66
6938;BME280;40040;42.706;23.372;2023-08-21T00:03:09;149846.66;;;23.00;76.76
6938;BME280;40040;42.706;23.372;2023-08-21T00:05:36;149851.66;;;23.02;76.18
6938;BME280;40040;42.706;23.372;2023-08-21T00:08:03;149856.66;;;23.04;76.02
6938;BME280;40040;42.706;23.372;2023-08-21T00:10:30;149864.09;;;23.07;75.70
6938;BME280;40040;42.706;23.372;2023-08-21T00:12:58;149862.88;;;23.06;76.31
6938;BME280;40040;42.706;23.372;2023-08-21T00:15:26;149847.94;;;23.00;77.33
6938;BME280;40040;42.706;23.372;2023-08-21T00:17:53;149830.50;;;22.93;78.02
6938;BME280;40040;42.706;23.372;2023-08-21T00:20:20;149739.63;;;22.57;77.68
6938;BME280;40040;42.706;23.372;2023-08-21T00:22:47;149816.81;;;22.88;77.49
6938;BME280;40040;42.706;23.372;2023-08-21T00:25:14;149814.31;;;22.87;77.41
6938;BME280;40040;42.706;23.372;2023-08-21T00:27:41;149801.88;;;22.82;78.66
6938;BME280;40040;42.706;23.372;2023-08-21T00:30:09;149789.44;;;22.77;78.89
6938;BME280;40040;42.706;23.372;2023-08-21T00:32:37;149762.06;;;22.66;79.46
6938;BME280;40040;42.706;23.372;2023-08-21T00:35:04;149752.06;;;22.62;79.77
6938;BME280;40040;42.706;23.372;2023-08-21T00:37:31;149763.31;;;22.66;79.11
6938;BME280;40040;42.706;23.372;2023-08-21T00:39:58;149762.06;;;22.66;79.77
6938;BME280;40040;42.706;23.372;2023-08-21T00:42:24;149729.63;;;22.53;80.46
6938;BME280;40040;42.706;23.372;2023-08-21T00:44:52;149733.44;;;22.54;80.49
6938;BME280;40040;42.706;23.372;2023-08-21T00:47:19;149682.34;;;22.33;79.73
6938;BME280;40040;42.706;23.372;2023-08-21T00:49:47;149744.63;;;22.59;78.12
6938;BME280;40040;42.706;23.372;2023-08-21T00:52:14;149699.75;;;22.41;78.64
6938;BME280;40040;42.706;23.372;2023-08-21T00:54:42;149672.41;;;22.29;80.15
6938;BME280;40040;42.706;23.372;2023-08-21T00:57:10;149689.84;;;22.37;79.09
6938;BME280;40040;42.706;23.372;2023-08-21T00:59:37;149676.13;;;22.31;79.47
6938;BME280;40040;42.706;23.372;2023-08-21T01:02:04;149668.69;;;22.28;79.96
6938;BME280;40040;42.706;23.372;2023-08-21T01:04:31;149662.44;;;22.25;79.67
6938;BME280;40040;42.706;23.372;2023-08-21T01:06:59;149642.56;;;22.17;80.42
6938;BME280;40040;42.706;23.372;2023-08-21T01:09:31;149646.28;;;22.19;80.38
6938;BME280;40040;42.706;23.372;2023-08-21T01:12:06;149637.56;;;22.15;80.55
6938;BME280;40040;42.706;23.372;2023-08-21T01:14:42;149633.84;;;22.14;80.84
6938;BME280;40040;42.706;23.372;2023-08-21T01:17:13;149607.72;;;22.03;82.03
6938;BME280;40040;42.706;23.372;2023-08-21T01:19:43;149599.00;;;22.00;81.11
6938;BME280;40040;42.706;23.372;2023-08-21T01:22:11;149610.19;;;22.04;81.09
6938;BME280;40040;42.706;23.372;2023-08-21T01:24:40;149545.50;;;21.78;81.65
6938;BME280;40040;42.706;23.372;2023-08-21T01:27:07;149587.78;;;21.95;81.43
6938;BME280;40040;42.706;23.372;2023-08-21T01:29:35;149599.00;;;22.00;81.86
6938;BME280;40040;42.706;23.372;2023-08-21T01:32:06;149600.22;;;22.00;81.39
6938;BME280;40040;42.706;23.372;2023-08-21T01:34:34;149590.28;;;21.96;81.36
6938;BME280;40040;42.706;23.372;2023-08-21T01:37:04;149582.78;;;21.93;81.53
6938;BME280;40040;42.706;23.372;2023-08-21T01:39:32;149552.94;;;21.81;81.58
6938;BME280;40040;42.706;23.372;2023-08-21T01:42:01;149565.38;;;21.86;81.85
6938;BME280;40040;42.706;23.372;2023-08-21T01:44:28;149565.38;;;21.86;81.65
6938;BME280;40040;42.706;23.372;2023-08-21T01:46:54;149565.38;;;21.86;81.62
6938;BME280;40040;42.706;23.372;2023-08-21T01:49:21;149545.50;;;21.78;81.80
6938;BME280;40040;42.706;23.372;2023-08-21T01:51:48;149530.56;;;21.72;82.23
6938;BME280;40040;42.706;23.372;2023-08-21T01:54:15;149487.00;;;21.55;82.73
6938;BME280;40040;42.706;23.372;2023-08-21T01:56:42;149485.75;;;21.54;83.68
6938;BME280;40040;42.706;23.372;2023-08-21T01:59:10;149475.78;;;21.50;83.70
6938;BME280;40040;42.706;23.372;2023-08-21T02:01:36;149483.25;;;21.53;83.83
6938;BME280;40040;42.706;23.372;2023-08-21T02:04:03;149482.03;;;21.53;83.53
6938;BME280;40040;42.706;23.372;2023-08-21T02:06:30;149474.53;;;21.50;83.89
6938;BME280;40040;42.706;23.372;2023-08-21T02:08:57;149478.31;;;21.51;84.27
6938;BME280;40040;42.706;23.372;2023-08-21T02:11:24;149477.03;;;21.51;84.35
6938;BME280;40040;42.706;23.372;2023-08-21T02:13:51;149401.16;;;21.20;84.31
6938;BME280;40040;42.706;23.372;2023-08-21T02:16:19;149469.59;;;21.48;84.55
6938;BME280;40040;42.706;23.372;2023-08-21T02:18:47;149458.38;;;21.43;84.85
6938;BME280;40040;42.706;23.372;2023-08-21T02:21:14;149458.38;;;21.43;84.48
6938;BME280;40040;42.706;23.372;2023-08-21T02:23:40;149444.69;;;21.38;84.98
6938;BME280;40040;42.706;23.372;2023-08-21T02:26:07;149449.69;;;21.40;85.15
6938;BME280;40040;42.706;23.372;2023-08-21T02:28:34;149438.50;;;21.35;85.42
6938;BME280;40040;42.706;23.372;2023-08-21T02:31:01;149437.25;;;21.35;85.46
6938;BME280;40040;42.706;23.372;2023-08-21T02:33:29;149438.50;;;21.35;85.51
6938;BME280;40040;42.706;23.372;2023-08-21T02:35:56;149423.56;;;21.29;85.67
6938;BME280;40040;42.706;23.372;2023-08-21T02:38:23;149416.13;;;21.26;86.01
6938;BME280;40040;42.706;23.372;2023-08-21T02:40:50;149404.94;;;21.21;86.39
6938;BME280;40040;42.706;23.372;2023-08-21T02:43:16;149357.69;;;21.02;86.86
6938;BME280;40040;42.706;23.372;2023-08-21T02:45:43;149397.44;;;21.18;86.73
6938;BME280;40040;42.706;23.372;2023-08-21T02:48:10;149381.28;;;21.12;87.19
6938;BME280;40040;42.706;23.372;2023-08-21T02:50:38;149368.88;;;21.07;87.81
6938;BME280;40040;42.706;23.372;2023-08-21T02:53:06;149375.09;;;21.09;87.13
6938;BME280;40040;42.706;23.372;2023-08-21T02:55:33;149376.31;;;21.10;87.26
6938;BME280;40040;42.706;23.372;2023-08-21T02:58:00;149372.59;;;21.08;87.41
6938;BME280;40040;42.706;23.372;2023-08-21T03:00:28;149314.13;;;20.85;88.57
6938;BME280;40040;42.706;23.372;2023-08-21T03:02:55;149338.97;;;20.95;88.79
6938;BME280;40040;42.706;23.372;2023-08-21T03:05:22;149327.75;;;20.90;88.15
6938;BME280;40040;42.706;23.372;2023-08-21T03:07:50;149346.44;;;20.98;88.56
6938;BME280;40040;42.706;23.372;2023-08-21T03:10:17;149346.44;;;20.98;88.71
6938;BME280;40040;42.706;23.372;2023-08-21T03:12:44;149341.44;;;20.96;88.78
6938;BME280;40040;42.706;23.372;2023-08-21T03:15:11;149336.47;;;20.94;88.76
6938;BME280;40040;42.706;23.372;2023-08-21T03:17:37;149336.47;;;20.94;88.87
6938;BME280;40040;42.706;23.372;2023-08-21T03:20:05;149330.28;;;20.91;88.67
6938;BME280;40040;42.706;23.372;2023-08-21T03:22:32;149314.13;;;20.85;89.12
6938;BME280;40040;42.706;23.372;2023-08-21T03:25:00;149316.59;;;20.86;89.51
6938;BME280;40040;42.706;23.372;2023-08-21T03:27:28;149319.13;;;20.87;89.42
6938;BME280;40040;42.706;23.372;2023-08-21T03:29:55;149315.34;;;20.85;89.58
6938;BME280;40040;42.706;23.372;2023-08-21T03:32:22;149306.63;;;20.82;89.76
6938;BME280;40040;42.706;23.372;2023-08-21T03:34:48;149299.19;;;20.79;90.03
6938;BME280;40040;42.706;23.372;2023-08-21T03:37:15;149290.50;;;20.75;90.50
6938;BME280;40040;42.706;23.372;2023-08-21T03:39:43;149291.75;;;20.76;90.18
6938;BME280;40040;42.706;23.372;2023-08-21T03:42:11;149286.78;;;20.74;90.41
6938;BME280;40040;42.706;23.372;2023-08-21T03:44:39;149284.31;;;20.73;90.85
6938;BME280;40040;42.706;23.372;2023-08-21T03:47:05;149279.31;;;20.71;90.83
6938;BME280;40040;42.706;23.372;2023-08-21T03:49:32;149276.81;;;20.70;90.91
6938;BME280;40040;42.706;23.372;2023-08-21T03:51:59;149260.66;;;20.63;91.80
6938;BME280;40040;42.706;23.372;2023-08-21T03:54:26;149169.94;;;20.27;92.48
6938;BME280;40040;42.706;23.372;2023-08-21T03:56:52;149171.19;;;20.27;93.00
6938;BME280;40040;42.706;23.372;2023-08-21T03:59:21;149244.53;;;20.57;92.55
6938;BME280;40040;42.706;23.372;2023-08-21T04:01:49;149249.50;;;20.59;92.15
6938;BME280;40040;42.706;23.372;2023-08-21T04:04:16;149245.78;;;20.57;92.84
6938;BME280;40040;42.706;23.372;2023-08-21T04:06:42;149247.00;;;20.58;92.96
6938;BME280;40040;42.706;23.372;2023-08-21T04:09:09;149251.97;;;20.60;93.06
6938;BME280;40040;42.706;23.372;2023-08-21T04:11:36;149261.91;;;20.64;92.72
6938;BME280;40040;42.706;23.372;2023-08-21T04:14:03;149259.41;;;20.63;93.02
6938;BME280;40040;42.706;23.372;2023-08-21T04:16:32;149266.91;;;20.66;92.88
6938;BME280;40040;42.706;23.372;2023-08-21T04:18:58;149284.31;;;20.73;92.37
6938;BME280;40040;42.706;23.372;2023-08-21T04:21:25;149284.31;;;20.73;92.75
6938;BME280;40040;42.706;23.372;2023-08-21T04:23:52;149278.06;;;20.70;93.23
6938;BME280;40040;42.706;23.372;2023-08-21T04:26:19;149293.00;;;20.76;92.51
6938;BME280;40040;42.706;23.372;2023-08-21T04:28:46;149296.72;;;20.78;92.02
6938;BME280;40040;42.706;23.372;2023-08-21T04:31:13;149296.72;;;20.78;92.39
6938;BME280;40040;42.706;23.372;2023-08-21T04:33:41;149291.75;;;20.76;91.66
6938;BME280;40040;42.706;23.372;2023-08-21T04:36:14;149274.34;;;20.69;92.03
6938;BME280;40040;42.706;23.372;2023-08-21T04:38:41;149268.09;;;20.66;92.39
6938;BME280;40040;42.706;23.372;2023-08-21T04:41:08;149271.81;;;20.68;92.70
6938;BME280;40040;42.706;23.372;2023-08-21T04:43:35;149265.66;;;20.65;92.66
6938;BME280;40040;42.706;23.372;2023-08-21T04:46:02;149256.94;;;20.62;92.48
6938;BME280;40040;42.706;23.372;2023-08-21T04:48:29;149240.78;;;20.55;93.40
6938;BME280;40040;42.706;23.372;2023-08-21T04:50:57;149212.19;;;20.44;93.87
6938;BME280;40040;42.706;23.372;2023-08-21T04:53:24;149232.09;;;20.52;94.10
6938;BME280;40040;42.706;23.372;2023-08-21T04:55:50;149227.13;;;20.50;94.16
6938;BME280;40040;42.706;23.372;2023-08-21T04:58:17;149244.53;;;20.57;94.15
6938;BME280;40040;42.706;23.372;2023-08-21T05:00:44;149249.50;;;20.59;94.30
6938;BME280;40040;42.706;23.372;2023-08-21T05:03:12;149209.72;;;20.43;94.18
6938;BME280;40040;42.706;23.372;2023-08-21T05:05:39;149284.31;;;20.73;94.46
6938;BME280;40040;42.706;23.372;2023-08-21T05:08:07;149297.94;;;20.78;94.38
6938;BME280;40040;42.706;23.372;2023-08-21T05:10:34;149294.22;;;20.77;93.71
6938;BME280;40040;42.706;23.372;2023-08-21T05:13:00;149197.28;;;20.38;93.68
6938;BME280;40040;42.706;23.372;2023-08-21T05:15:27;149304.16;;;20.81;94.48
6938;BME280;40040;42.706;23.372;2023-08-21T05:17:54;149310.41;;;20.83;94.37
6938;BME280;40040;42.706;23.372;2023-08-21T05:20:21;149322.84;;;20.88;95.15
6938;BME280;40040;42.706;23.372;2023-08-21T05:22:48;149350.19;;;20.99;95.14
6938;BME280;40040;42.706;23.372;2023-08-21T05:25:16;149353.91;;;21.01;95.52
6938;BME280;40040;42.706;23.372;2023-08-21T05:27:43;149378.81;;;21.11;95.80
6938;BME280;40040;42.706;23.372;2023-08-21T05:30:10;149408.66;;;21.23;95.04
6938;BME280;40040;42.706;23.372;2023-08-21T05:32:38;149423.56;;;21.29;95.26
6938;BME280;40040;42.706;23.372;2023-08-21T05:35:05;149475.78;;;21.50;94.55
6938;BME280;40040;42.706;23.372;2023-08-21T05:37:33;149520.59;;;21.68;93.10
6938;BME280;40040;42.706;23.372;2023-08-21T05:40:00;149570.38;;;21.88;91.88
6938;BME280;40040;42.706;23.372;2023-08-21T05:42:30;149618.88;;;22.08;90.18
6938;BME280;40040;42.706;23.372;2023-08-21T05:44:57;149668.69;;;22.28;89.70
6938;BME280;40040;42.706;23.372;2023-08-21T05:47:24;149737.16;;;22.56;87.55
6938;BME280;40040;42.706;23.372;2023-08-21T05:49:52;149794.38;;;22.79;85.98
6938;BME280;40040;42.706;23.372;2023-08-21T05:52:19;149849.19;;;23.01;84.73
6938;BME280;40040;42.706;23.372;2023-08-21T05:54:46;149901.47;;;23.22;82.64
6938;BME280;40040;42.706;23.372;2023-08-21T05:57:13;149963.75;;;23.47;80.97
6938;BME280;40040;42.706;23.372;2023-08-21T05:59:45;150019.78;;;23.70;80.10
6938;BME280;40040;42.706;23.372;2023-08-21T06:02:12;150078.38;;;23.93;78.14
6938;BME280;40040;42.706;23.372;2023-08-21T06:04:40;150112.03;;;24.07;76.45
6938;BME280;40040;42.706;23.372;2023-08-21T06:07:07;150150.66;;;24.22;74.92
6938;BME280;40040;42.706;23.372;2023-08-21T06:09:35;150179.28;;;24.34;74.73
6938;BME280;40040;42.706;23.372;2023-08-21T06:12:02;150235.38;;;24.57;73.42
6938;BME280;40040;42.706;23.372;2023-08-21T06:14:29;150310.19;;;24.87;72.09
6938;BME280;40040;42.706;23.372;2023-08-21T06:16:58;150357.56;;;25.06;71.16
6938;BME280;40040;42.706;23.372;2023-08-21T06:19:25;150431.13;;;25.35;70.11
6938;BME280;40040;42.706;23.372;2023-08-21T06:21:52;150477.31;;;25.54;69.30
6938;BME280;40040;42.706;23.372;2023-08-21T06:24:19;150533.44;;;25.77;68.14
6938;BME280;40040;42.706;23.372;2023-08-21T06:26:46;150584.56;;;25.97;66.67
6938;BME280;40040;42.706;23.372;2023-08-21T06:29:12;150639.47;;;26.19;66.16
6938;BME280;40040;42.706;23.372;2023-08-21T06:31:39;150666.94;;;26.30;64.74
6938;BME280;40040;42.706;23.372;2023-08-21T06:34:07;150778.03;;;26.75;63.22
6938;BME280;40040;42.706;23.372;2023-08-21T06:36:34;150836.69;;;26.99;62.17
6938;BME280;40040;42.706;23.372;2023-08-21T06:39:01;150904.06;;;27.26;61.50
6938;BME280;40040;42.706;23.372;2023-08-21T06:41:29;150939.09;;;27.40;61.06
6938;BME280;40040;42.706;23.372;2023-08-21T06:43:57;150994.00;;;27.62;59.67
6938;BME280;40040;42.706;23.372;2023-08-21T06:46:24;151031.47;;;27.77;59.42
6938;BME280;40040;42.706;23.372;2023-08-21T06:48:51;151026.47;;;27.75;59.39
6938;BME280;40040;42.706;23.372;2023-08-21T06:51:19;151006.47;;;27.67;59.60
6938;BME280;40040;42.706;23.372;2023-08-21T06:53:46;151046.44;;;27.83;59.43
6938;BME280;40040;42.706;23.372;2023-08-21T06:56:13;151086.47;;;27.99;58.02
6938;BME280;40040;42.706;23.372;2023-08-21T06:58:39;151138.91;;;28.20;57.20
6938;BME280;40040;42.706;23.372;2023-08-21T07:01:06;151216.41;;;28.51;55.97
6938;BME280;40040;42.706;23.372;2023-08-21T07:03:33;151280.09;;;28.77;55.48
6938;BME280;40040;42.706;23.372;2023-08-21T07:06:00;151322.63;;;28.94;54.14
6938;BME280;40040;42.706;23.372;2023-08-21T07:08:29;151358.84;;;29.09;54.62
6938;BME280;40040;42.706;23.372;2023-08-21T07:10:56;151421.38;;;29.34;53.54
6938;BME280;40040;42.706;23.372;2023-08-21T07:13:24;151433.88;;;29.39;53.13
6938;BME280;40040;42.706;23.372;2023-08-21T07:15:52;151481.38;;;29.58;52.04
6938;BME280;40040;42.706;23.372;2023-08-21T07:18:20;151515.16;;;29.71;52.27
6938;BME280;40040;42.706;23.372;2023-08-21T07:20:47;151557.66;;;29.88;51.85
6938;BME280;40040;42.706;23.372;2023-08-21T07:23:14;151608.97;;;30.09;51.57
6938;BME280;40040;42.706;23.372;2023-08-21T07:25:42;151536.41;;;29.80;51.67
6938;BME280;40040;42.706;23.372;2023-08-21T07:28:09;151446.38;;;29.44;51.65
6938;BME280;40040;42.706;23.372;2023-08-21T07:30:36;151481.38;;;29.58;52.38
6938;BME280;40040;42.706;23.372;2023-08-21T07:33:03;151532.66;;;29.78;52.81
6938;BME280;40040;42.706;23.372;2023-08-21T07:35:30;151638.97;;;30.21;51.30
6938;BME280;40040;42.706;23.372;2023-08-21T07:37:57;151687.75;;;30.41;50.51
6938;BME280;40040;42.706;23.372;2023-08-21T07:40:24;151809.13;;;30.89;48.65
6938;BME280;40040;42.706;23.372;2023-08-21T07:42:53;151749.03;;;30.65;49.38
6938;BME280;40040;42.706;23.372;2023-08-21T07:45:19;151769.06;;;30.73;49.00
6938;BME280;40040;42.706;23.372;2023-08-21T07:47:46;151714.00;;;30.51;48.68
6938;BME280;40040;42.706;23.372;2023-08-21T07:50:13;151648.97;;;30.25;49.25
6938;BME280;40040;42.706;23.372;2023-08-21T07:52:42;151776.56;;;30.76;48.74
6938;BME280;40040;42.706;23.372;2023-08-21T07:55:09;151826.63;;;30.97;48.37
6938;BME280;40040;42.706;23.372;2023-08-21T07:57:35;151929.31;;;31.38;46.96
6938;BME280;40040;42.706;23.372;2023-08-21T08:00:05;152000.59;;;31.66;46.95
6938;BME280;40040;42.706;23.372;2023-08-21T08:02:34;151981.88;;;31.59;46.90
6938;BME280;40040;42.706;23.372;2023-08-21T08:05:01;152053.22;;;31.87;46.66
6938;BME280;40040;42.706;23.372;2023-08-21T08:07:28;152167.16;;;32.33;44.65
6938;BME280;40040;42.706;23.372;2023-08-21T08:09:55;152194.75;;;32.44;43.86
6938;BME280;40040;42.706;23.372;2023-08-21T08:12:22;152229.81;;;32.58;44.02
6938;BME280;40040;42.706;23.372;2023-08-21T08:14:49;152309.94;;;32.90;43.23
6938;BME280;40040;42.706;23.372;2023-08-21T08:17:17;152330.06;;;32.98;42.76
6938;BME280;40040;42.706;23.372;2023-08-21T08:19:44;152277.41;;;32.77;43.10
6938;BME280;40040;42.706;23.372;2023-08-21T08:22:10;152251.09;;;32.67;43.22
6938;BME280;40040;42.706;23.372;2023-08-21T08:24:37;152322.50;;;32.95;42.22
6938;BME280;40040;42.706;23.372;2023-08-21T08:27:04;152372.63;;;33.16;42.16
6938;BME280;40040;42.706;23.372;2023-08-21T08:29:32;152492.91;;;33.64;41.04
6938;BME280;40040;42.706;23.372;2023-08-21T08:31:59;152593.22;;;34.04;40.93
6938;BME280;40040;42.706;23.372;2023-08-21T08:34:27;152711.06;;;34.51;38.67
6938;BME280;40040;42.706;23.372;2023-08-21T08:36:53;152788.78;;;34.82;38.71
6938;BME280;40040;42.706;23.372;2023-08-21T08:39:20;152918.00;;;35.34;36.71
6938;BME280;40040;42.706;23.372;2023-08-21T08:41:53;153027.13;;;35.78;36.81
6938;BME280;40040;42.706;23.372;2023-08-21T08:44:24;153079.84;;;35.99;35.40
6938;BME280;40040;42.706;23.372;2023-08-21T08:46:51;153097.41;;;36.06;34.35
6938;BME280;40040;42.706;23.372;2023-08-21T08:49:18;153067.31;;;35.94;34.96
6938;BME280;40040;42.706;23.372;2023-08-21T08:51:50;153099.97;;;36.07;34.53
6938;BME280;40040;42.706;23.372;2023-08-21T08:54:17;153141.34;;;36.23;34.37
6938;BME280;40040;42.706;23.372;2023-08-21T08:56:46;153226.72;;;36.58;33.25
6938;BME280;40040;42.706;23.372;2023-08-21T08:59:13;153310.81;;;36.91;32.63
6938;BME280;40040;42.706;23.372;2023-08-21T09:01:40;153347.22;;;37.06;33.21
6938;BME280;40040;42.706;23.372;2023-08-21T09:04:07;153362.31;;;37.12;32.74
6938;BME280;40040;42.706;23.372;2023-08-21T09:06:34;153358.50;;;37.10;33.29
6938;BME280;40040;42.706;23.372;2023-08-21T09:09:02;153410.06;;;37.31;32.77
6938;BME280;40040;42.706;23.372;2023-08-21T09:11:29;153383.66;;;37.20;32.34
6938;BME280;40040;42.706;23.372;2023-08-21T09:13:56;153332.16;;;37.00;32.15
6938;BME280;40040;42.706;23.372;2023-08-21T09:16:25;153325.91;;;36.97;33.04
6938;BME280;40040;42.706;23.372;2023-08-21T09:18:55;153222.97;;;36.56;34.46
6938;BME280;40040;42.706;23.372;2023-08-21T09:21:24;153225.47;;;36.57;33.82
6938;BME280;40040;42.706;23.372;2023-08-21T09:23:56;153329.66;;;36.99;33.00
6938;BME280;40040;42.706;23.372;2023-08-21T09:26:26;153471.53;;;37.56;33.88
6938;BME280;40040;42.706;23.372;2023-08-21T09:28:53;153423.81;;;37.37;31.97
6938;BME280;40040;42.706;23.372;2023-08-21T09:31:23;153445.22;;;37.45;31.09
6938;BME280;40040;42.706;23.372;2023-08-21T09:33:59;153526.84;;;37.78;29.36
6938;BME280;40040;42.706;23.372;2023-08-21T09:36:26;153605.97;;;38.09;29.13
6938;BME280;40040;42.706;23.372;2023-08-21T09:38:53;153644.94;;;38.25;29.32
6938;BME280;40040;42.706;23.372;2023-08-21T09:41:20;153717.78;;;38.54;29.00
6938;BME280;40040;42.706;23.372;2023-08-21T09:43:49;153763.06;;;38.72;28.21
6938;BME280;40040;42.706;23.372;2023-08-21T09:46:17;153848.50;;;39.06;29.98
6938;BME280;40040;42.706;23.372;2023-08-21T09:48:45;153878.66;;;39.18;27.78
6938;BME280;40040;42.706;23.372;2023-08-21T09:51:12;153912.56;;;39.32;28.07
6938;BME280;40040;42.706;23.372;2023-08-21T09:53:40;153805.75;;;38.89;28.46
6938;BME280;40040;42.706;23.372;2023-08-21T09:56:07;153798.22;;;38.86;28.16
6938;BME280;40040;42.706;23.372;2023-08-21T09:58:35;153661.25;;;38.32;28.78
6938;BME280;40040;42.706;23.372;2023-08-21T10:01:06;153533.09;;;37.80;29.52
6938;BME280;40040;42.706;23.372;2023-08-21T10:03:39;153646.16;;;38.25;29.31
6938;BME280;40040;42.706;23.372;2023-08-21T10:06:08;153775.63;;;38.77;27.93
6938;BME280;40040;42.706;23.372;2023-08-21T10:08:39;153799.44;;;38.87;27.91
6938;BME280;40040;42.706;23.372;2023-08-21T10:11:06;153798.22;;;38.86;27.93
6938;BME280;40040;42.706;23.372;2023-08-21T10:13:37;153798.22;;;38.86;28.33
6938;BME280;40040;42.706;23.372;2023-08-21T10:16:07;153835.91;;;39.01;28.83
6938;BME280;40040;42.706;23.372;2023-08-21T10:18:37;153727.84;;;38.58;28.18
6938;BME280;40040;42.706;23.372;2023-08-21T10:21:11;153804.47;;;38.89;28.51
6938;BME280;40040;42.706;23.372;2023-08-21T10:23:39;153878.66;;;39.18;27.90
6938;BME280;40040;42.706;23.372;2023-08-21T10:26:09;154029.53;;;39.79;27.90
6938;BME280;40040;42.706;23.372;2023-08-21T10:28:43;154084.84;;;40.01;26.66
6938;BME280;40040;42.706;23.372;2023-08-21T10:31:29;154057.19;;;39.90;26.28
6938;BME280;40040;42.706;23.372;2023-08-21T10:33:57;154047.13;;;39.86;25.92
6938;BME280;40040;42.706;23.372;2023-08-21T10:39:27;154135.09;;;40.21;24.29
6938;BME280;40040;42.706;23.372;2023-08-21T10:41:57;154181.69;;;40.40;24.16
6938;BME280;40040;42.706;23.372;2023-08-21T10:44:47;154166.59;;;40.33;24.77
6938;BME280;40040;42.706;23.372;2023-08-21T10:47:19;154148.94;;;40.26;24.61
6938;BME280;40040;42.706;23.372;2023-08-21T10:49:47;154216.91;;;40.54;23.98
6938;BME280;40040;42.706;23.372;2023-08-21T10:52:15;154296.13;;;40.85;23.95
6938;BME280;40040;42.706;23.372;2023-08-21T10:54:47;154273.53;;;40.76;23.74
6938;BME280;40040;42.706;23.372;2023-08-21T10:57:15;154147.69;;;40.26;24.71
6938;BME280;40040;42.706;23.372;2023-08-21T10:59:55;154097.41;;;40.06;24.46
6938;BME280;40040;42.706;23.372;2023-08-21T11:02:27;154112.53;;;40.12;24.47
6938;BME280;40040;42.706;23.372;2023-08-21T11:04:55;154037.06;;;39.82;24.68
6938;BME280;40040;42.706;23.372;2023-08-21T11:07:23;154107.50;;;40.10;24.33
6938;BME280;40040;42.706;23.372;2023-08-21T11:09:50;154130.13;;;40.19;23.68
6938;BME280;40040;42.706;23.372;2023-08-21T11:12:19;154118.78;;;40.14;23.76
6938;BME280;40040;42.706;23.372;2023-08-21T11:14:47;154021.94;;;39.76;24.73
6938;BME280;40040;42.706;23.372;2023-08-21T11:17:14;153990.56;;;39.63;24.40
6938;BME280;40040;42.706;23.372;2023-08-21T11:19:42;154037.06;;;39.82;24.87
6938;BME280;40040;42.706;23.372;2023-08-21T11:22:11;153906.31;;;39.29;24.77
6938;BME280;40040;42.706;23.372;2023-08-21T11:24:43;153898.78;;;39.26;24.96
6938;BME280;40040;42.706;23.372;2023-08-21T11:27:11;153966.66;;;39.54;25.35
6938;BME280;40040;42.706;23.372;2023-08-21T11:29:40;154059.72;;;39.91;25.70
6938;BME280;40040;42.706;23.372;2023-08-21T11:32:09;154052.09;;;39.88;24.55
6938;BME280;40040;42.706;23.372;2023-08-21T11:34:36;153965.41;;;39.53;24.75
6938;BME280;40040;42.706;23.372;2023-08-21T11:37:05;154009.38;;;39.71;24.25
6938;BME280;40040;42.706;23.372;2023-08-21T11:39:42;154039.53;;;39.83;24.59
6938;BME280;40040;42.706;23.372;2023-08-21T11:42:10;154064.75;;;39.93;23.58
6938;BME280;40040;42.706;23.372;2023-08-21T11:44:46;154125.09;;;40.17;23.21
6938;BME280;40040;42.706;23.372;2023-08-21T11:47:14;154068.53;;;39.94;23.98
6938;BME280;40040;42.706;23.372;2023-08-21T11:49:42;153843.47;;;39.04;24.18
6938;BME280;40040;42.706;23.372;2023-08-21T11:52:11;153896.25;;;39.25;23.81
6938;BME280;40040;42.706;23.372;2023-08-21T11:54:40;153881.19;;;39.19;24.80
6938;BME280;40040;42.706;23.372;2023-08-21T11:57:08;153867.38;;;39.14;24.68
6938;BME280;40040;42.706;23.372;2023-08-21T11:59:35;153896.25;;;39.25;23.26
6938;BME280;40040;42.706;23.372;2023-08-21T12:02:09;153907.59;;;39.30;23.52
6938;BME280;40040;42.706;23.372;2023-08-21T12:04:36;153783.13;;;38.80;24.50
6938;BME280;40040;42.706;23.372;2023-08-21T12:07:03;153654.94;;;38.29;25.23
6938;BME280;40040;42.706;23.372;2023-08-21T12:09:31;153588.38;;;38.02;25.77
6938;BME280;40040;42.706;23.372;2023-08-21T12:11:59;153592.16;;;38.04;26.26
6938;BME280;40040;42.706;23.372;2023-08-21T12:14:27;153556.97;;;37.90;25.94
6938;BME280;40040;42.706;23.372;2023-08-21T12:16:54;153505.47;;;37.69;25.60
6938;BME280;40040;42.706;23.372;2023-08-21T12:19:22;153426.38;;;37.38;26.06
6938;BME280;40040;42.706;23.372;2023-08-21T12:21:50;153401.28;;;37.28;26.09
6938;BME280;40040;42.706;23.372;2023-08-21T12:24:17;153354.75;;;37.09;26.23
6938;BME280;40040;42.706;23.372;2023-08-21T12:26:45;153367.28;;;37.14;28.52
6938;BME280;40040;42.706;23.372;2023-08-21T12:29:12;153425.09;;;37.37;26.74
6938;BME280;40040;42.706;23.372;2023-08-21T12:31:38;153376.09;;;37.17;26.28
6938;BME280;40040;42.706;23.372;2023-08-21T12:34:05;153358.50;;;37.10;26.32
6938;BME280;40040;42.706;23.372;2023-08-21T12:36:34;153378.63;;;37.18;26.06
6938;BME280;40040;42.706;23.372;2023-08-21T12:39:02;153340.94;;;37.03;26.02
6938;BME280;40040;42.706;23.372;2023-08-21T12:41:29;153229.22;;;36.59;25.75
6938;BME280;40040;42.706;23.372;2023-08-21T12:43:57;153177.78;;;36.38;26.50
6938;BME280;40040;42.706;23.372;2023-08-21T12:46:24;153167.69;;;36.34;26.59
6938;BME280;40040;42.706;23.372;2023-08-21T12:48:51;153215.41;;;36.53;26.31
6938;BME280;40040;42.706;23.372;2023-08-21T12:51:19;153243.03;;;36.64;26.35
6938;BME280;40040;42.706;23.372;2023-08-21T12:53:46;153177.78;;;36.38;27.52
6938;BME280;40040;42.706;23.372;2023-08-21T12:56:13;153147.63;;;36.26;28.09